createdAt,value
2023-01-25T00:00:46.823Z,3.30
2023-01-25T00:03:15.821Z,3.39
2023-01-25T00:05:43.667Z,3.14
2023-01-25T00:08:11.224Z,3.08
2023-01-25T00:10:38.833Z,3.00
2023-01-25T00:13:06.388Z,2.88
2023-01-25T00:15:33.945Z,2.78
2023-01-25T00:18:02.041Z,2.91
2023-01-25T00:20:30.998Z,2.73
2023-01-25T00:22:59.006Z,2.72
2023-01-25T00:25:28.958Z,2.70
2023-01-25T00:27:56.812Z,2.58
2023-01-25T00:30:24.669Z,2.50
2023-01-25T00:33:01.724Z,2.47
2023-01-25T00:35:32.169Z,2.49
2023-01-25T00:38:06.291Z,2.50
2023-01-25T00:40:33.843Z,2.33
2023-01-25T00:43:01.471Z,2.47
2023-01-25T00:45:29.075Z,2.63
2023-01-25T00:47:56.775Z,2.57
2023-01-25T00:50:24.361Z,2.63
2023-01-25T00:52:53.254Z,2.47
2023-01-25T00:55:21.079Z,2.30
2023-01-25T00:57:48.638Z,2.29
2023-01-25T01:00:17.008Z,2.29
2023-01-25T01:02:44.602Z,2.37
2023-01-25T01:05:12.745Z,2.49
2023-01-25T01:07:40.703Z,2.40
2023-01-25T01:10:10.982Z,2.37
2023-01-25T01:12:40.839Z,2.33
2023-01-25T01:15:09.847Z,2.55
2023-01-25T01:17:37.520Z,2.49
2023-01-25T01:20:05.791Z,2.47
2023-01-25T01:22:33.635Z,2.54
2023-01-25T01:25:01.416Z,2.50
2023-01-25T01:27:32.578Z,2.36
2023-01-25T01:30:00.468Z,2.59
2023-01-25T01:32:28.457Z,2.73
2023-01-25T01:34:56.448Z,2.67
2023-01-25T01:37:24.762Z,2.49
2023-01-25T01:39:52.375Z,2.50
2023-01-25T01:42:20.171Z,2.68
2023-01-25T01:44:51.216Z,2.81
2023-01-25T01:47:25.823Z,2.69
2023-01-25T01:50:01.730Z,2.66
2023-01-25T01:52:38.853Z,2.57
2023-01-25T01:55:12.985Z,2.49
2023-01-25T01:57:47.113Z,2.51
2023-01-25T02:00:21.278Z,2.48
2023-01-25T02:02:50.573Z,2.52
2023-01-25T02:05:25.920Z,2.46
2023-01-25T02:07:55.621Z,2.46
2023-01-25T02:10:27.161Z,2.30
2023-01-25T02:12:58.995Z,2.30
2023-01-25T02:15:45.384Z,2.36
2023-01-25T02:18:13.615Z,2.23
2023-01-25T02:20:47.047Z,2.39
2023-01-25T02:23:27.197Z,2.29
2023-01-25T02:26:01.595Z,2.67
2023-01-25T02:28:36.059Z,2.43
2023-01-25T02:31:04.140Z,2.46
2023-01-25T02:33:32.005Z,2.43
2023-01-25T02:36:15.426Z,2.15
2023-01-25T02:38:48.828Z,2.33
2023-01-25T02:41:24.873Z,2.75
2023-01-25T02:43:52.801Z,2.78
2023-01-25T02:46:25.622Z,2.57
2023-01-25T02:48:56.168Z,2.41
2023-01-25T02:51:26.368Z,2.61
2023-01-25T02:53:54.842Z,2.74
2023-01-25T02:56:24.752Z,2.78
2023-01-25T02:58:52.377Z,2.78
2023-01-25T03:01:20.089Z,2.43
2023-01-25T03:03:47.754Z,2.33
2023-01-25T03:06:18.170Z,2.28
2023-01-25T03:08:45.891Z,2.33
2023-01-25T03:11:13.640Z,2.39
2023-01-25T03:13:43.475Z,2.26
2023-01-25T03:16:14.410Z,2.36
2023-01-25T03:18:43.153Z,2.23
2023-01-25T03:21:13.177Z,2.22
2023-01-25T03:23:40.990Z,2.31
2023-01-25T03:26:11.416Z,2.32
2023-01-25T03:28:40.794Z,2.24
2023-01-25T03:31:11.796Z,2.32
2023-01-25T03:33:40.044Z,2.29
2023-01-25T03:36:08.279Z,2.24
2023-01-25T03:38:36.949Z,2.27
2023-01-25T03:41:04.943Z,2.24
2023-01-25T03:43:32.960Z,2.34
2023-01-25T03:46:02.056Z,2.34
2023-01-25T03:48:31.279Z,2.25
2023-01-25T03:51:00.221Z,2.32
2023-01-25T03:53:30.122Z,2.35
2023-01-25T03:56:00.207Z,2.31
2023-01-25T03:58:30.102Z,2.43
2023-01-25T04:00:59.465Z,2.38
2023-01-25T04:03:30.234Z,2.46
2023-01-25T04:06:00.715Z,2.35
2023-01-25T04:08:28.388Z,2.38
2023-01-25T04:11:00.371Z,2.39
2023-01-25T04:13:28.991Z,2.43
2023-01-25T04:15:56.550Z,2.53
2023-01-25T04:18:24.133Z,2.69
2023-01-25T04:20:53.180Z,2.69
2023-01-25T04:23:22.980Z,2.52
2023-01-25T04:25:53.640Z,2.24
2023-01-25T04:28:21.216Z,2.66
2023-01-25T04:30:48.993Z,2.56
2023-01-25T04:33:16.631Z,2.62
2023-01-25T04:35:44.916Z,2.39
2023-01-25T04:38:13.215Z,2.53
2023-01-25T04:40:43.078Z,2.38
2023-01-25T04:43:13.365Z,2.73
2023-01-25T04:45:41.040Z,2.73
2023-01-25T04:48:10.984Z,2.68
2023-01-25T04:50:40.009Z,2.78
2023-01-25T04:53:09.344Z,2.34
2023-01-25T04:55:36.913Z,2.49
2023-01-25T04:58:06.609Z,2.59
2023-01-25T05:00:34.364Z,2.29
2023-01-25T05:03:03.245Z,2.02
2023-01-25T05:05:30.934Z,1.80
2023-01-25T05:07:58.540Z,1.97
2023-01-25T05:10:26.307Z,1.78
2023-01-25T05:12:54.990Z,1.90
2023-01-25T05:15:27.414Z,1.99
2023-01-25T05:17:54.989Z,1.88
2023-01-25T05:20:22.545Z,1.87
2023-01-25T05:22:50.143Z,1.68
2023-01-25T05:25:17.743Z,1.78
2023-01-25T05:27:45.359Z,1.77
2023-01-25T05:30:13.476Z,1.67
2023-01-25T05:32:42.480Z,1.60
2023-01-25T05:35:10.322Z,1.66
2023-01-25T05:37:38.073Z,1.54
2023-01-25T05:40:07.301Z,1.39
2023-01-25T05:42:34.910Z,1.45
2023-01-25T05:45:02.790Z,1.30
2023-01-25T05:47:30.407Z,1.46
2023-01-25T05:49:59.306Z,1.21
2023-01-25T05:52:26.879Z,1.41
2023-01-25T05:54:54.653Z,1.36
2023-01-25T05:57:22.360Z,1.49
2023-01-25T05:59:50.015Z,1.42
2023-01-25T06:02:17.700Z,1.51
2023-01-25T06:04:45.534Z,1.35
2023-01-25T06:07:14.435Z,1.47
2023-01-25T06:09:41.986Z,1.68
2023-01-25T06:12:09.628Z,1.63
2023-01-25T06:14:37.222Z,1.57
2023-01-25T06:17:04.921Z,1.52
2023-01-25T06:19:33.069Z,1.68
2023-01-25T06:22:00.899Z,1.63
2023-01-25T06:24:29.862Z,1.45
2023-01-25T06:26:57.445Z,1.54
2023-01-25T06:29:25.061Z,1.49
2023-01-25T06:31:52.735Z,1.44
2023-01-25T06:34:20.409Z,1.41
2023-01-25T06:36:48.412Z,1.64
2023-01-25T06:39:15.953Z,1.73
2023-01-25T06:41:44.846Z,1.76
2023-01-25T06:44:12.548Z,1.88
2023-01-25T06:46:40.164Z,1.65
2023-01-25T06:49:07.933Z,1.73
2023-01-25T06:51:35.669Z,1.82
2023-01-25T06:54:03.801Z,1.73
2023-01-25T06:56:31.581Z,1.89
2023-01-25T06:59:00.838Z,1.71
2023-01-25T07:01:28.677Z,1.82
2023-01-25T07:03:58.280Z,1.67
2023-01-25T07:06:31.228Z,1.78
2023-01-25T07:09:02.894Z,1.64
2023-01-25T07:11:30.438Z,1.86
2023-01-25T07:13:58.024Z,1.92
2023-01-25T07:16:27.890Z,1.82
2023-01-25T07:18:55.538Z,2.00
2023-01-25T07:21:23.873Z,2.27
2023-01-25T07:23:52.570Z,2.51
2023-01-25T07:26:24.475Z,2.23
2023-01-25T07:28:53.607Z,2.53
2023-01-25T07:31:21.414Z,2.59
2023-01-25T07:33:52.591Z,2.75
2023-01-25T07:36:21.841Z,2.63
2023-01-25T07:38:53.612Z,2.82
2023-01-25T07:41:21.822Z,2.87
2023-01-25T07:43:49.570Z,3.02
2023-01-25T07:46:17.691Z,3.13
2023-01-25T07:48:47.608Z,3.19
2023-01-25T07:51:18.156Z,3.13
2023-01-25T07:53:46.305Z,3.16
2023-01-25T07:56:13.859Z,3.39
2023-01-25T07:58:41.491Z,3.49
2023-01-25T08:01:12.596Z,3.40
2023-01-25T08:03:40.614Z,3.24
2023-01-25T08:06:09.047Z,3.30
2023-01-25T08:08:42.411Z,3.61
2023-01-25T08:11:15.226Z,3.61
2023-01-25T08:13:43.270Z,3.58
2023-01-25T08:16:11.842Z,3.71
2023-01-25T08:18:39.649Z,4.14
2023-01-25T08:21:08.222Z,4.32
2023-01-25T08:23:36.188Z,4.55
2023-01-25T08:26:07.818Z,4.87
2023-01-25T08:28:35.398Z,5.01
2023-01-25T08:31:08.209Z,5.00
2023-01-25T08:33:35.827Z,5.17
2023-01-25T08:36:04.367Z,5.18
2023-01-25T08:38:32.568Z,5.30
2023-01-25T08:41:07.034Z,5.08
2023-01-25T08:43:35.658Z,4.99
2023-01-25T08:46:04.458Z,4.57
2023-01-25T08:48:32.665Z,5.00
2023-01-25T08:51:04.436Z,5.30
2023-01-25T08:53:33.145Z,5.25
2023-01-25T08:56:06.415Z,5.27
2023-01-25T08:58:36.744Z,5.23
2023-01-25T09:01:08.627Z,5.88
2023-01-25T09:03:39.214Z,6.33
2023-01-25T09:06:08.566Z,7.10
2023-01-25T09:08:37.202Z,7.15
2023-01-25T09:11:08.518Z,8.18
2023-01-25T09:13:37.762Z,8.25
2023-01-25T09:16:07.730Z,8.15
2023-01-25T09:18:37.630Z,8.21
2023-01-25T09:21:06.778Z,8.61
2023-01-25T09:23:50.281Z,8.52
2023-01-25T09:26:20.543Z,8.16
2023-01-25T09:28:50.138Z,9.03
2023-01-25T09:31:22.659Z,9.14
2023-01-25T09:33:51.925Z,8.70
2023-01-25T09:36:19.855Z,9.25
2023-01-25T09:38:47.698Z,9.60
2023-01-25T09:41:42.113Z,9.79
2023-01-25T09:44:29.021Z,9.33
2023-01-25T09:47:01.471Z,9.96
2023-01-25T09:49:51.172Z,10.25
2023-01-25T09:52:46.874Z,10.88
2023-01-25T09:55:18.832Z,11.78
2023-01-25T09:57:51.208Z,12.19
2023-01-25T10:00:26.664Z,12.06
2023-01-25T10:03:02.774Z,10.72
2023-01-25T10:05:37.763Z,10.41
2023-01-25T10:08:17.098Z,10.50
2023-01-25T10:10:52.088Z,10.73
2023-01-25T10:13:25.304Z,11.06
2023-01-25T10:16:01.416Z,10.35
2023-01-25T10:18:37.200Z,10.27
2023-01-25T10:21:17.022Z,9.41
2023-01-25T10:24:12.905Z,9.01
2023-01-25T10:26:55.118Z,9.21
2023-01-25T10:29:28.033Z,9.12
2023-01-25T10:32:11.971Z,8.09
2023-01-25T10:34:55.781Z,8.10
2023-01-25T10:37:29.267Z,8.04
2023-01-25T10:40:04.226Z,7.70
2023-01-25T10:42:41.289Z,7.72
2023-01-25T10:45:14.072Z,7.33
2023-01-25T10:47:45.738Z,7.70
2023-01-25T10:50:58.230Z,7.53
2023-01-25T10:53:29.339Z,7.21
2023-01-25T10:56:20.499Z,7.01
2023-01-25T10:58:50.988Z,7.09
2023-01-25T11:01:29.048Z,7.09
2023-01-25T11:03:58.409Z,7.06
2023-01-25T11:06:32.283Z,7.07
2023-01-25T11:09:00.718Z,6.69
2023-01-25T11:14:17.240Z,6.67
2023-01-25T11:16:48.313Z,7.06
2023-01-25T11:19:28.637Z,6.98
2023-01-25T11:21:58.902Z,6.94
2023-01-25T11:24:28.749Z,6.73
2023-01-25T11:27:13.717Z,6.71
2023-01-25T11:29:41.510Z,6.60
2023-01-25T11:32:19.827Z,6.70
2023-01-25T11:34:52.053Z,6.39
2023-01-25T11:37:39.035Z,6.59
2023-01-25T11:40:19.011Z,6.55
2023-01-25T11:42:59.905Z,6.64
2023-01-25T11:46:00.797Z,6.75
2023-01-25T11:48:53.899Z,6.58
2023-01-25T11:51:29.311Z,6.46
2023-01-25T11:54:17.422Z,6.18
2023-01-25T11:56:58.008Z,6.53
2023-01-25T11:59:53.036Z,6.65
2023-01-25T12:03:10.726Z,6.79
2023-01-25T12:05:53.568Z,6.44
2023-01-25T12:08:42.928Z,6.44
2023-01-25T12:11:24.205Z,6.21
2023-01-25T12:14:02.448Z,6.19
2023-01-25T12:16:50.016Z,6.19
2023-01-25T12:19:44.427Z,6.25
2023-01-25T12:22:38.137Z,6.32
2023-01-25T12:25:25.369Z,6.30
2023-01-25T12:28:09.656Z,6.64
2023-01-25T12:30:48.051Z,6.23
2023-01-25T12:33:25.561Z,6.16
2023-01-25T12:36:01.558Z,6.51
2023-01-25T12:38:39.920Z,6.43
2023-01-25T12:41:23.111Z,6.58
2023-01-25T12:43:58.083Z,6.15
2023-01-25T12:46:30.559Z,5.82
2023-01-25T12:49:07.107Z,5.93
2023-01-25T12:51:41.541Z,6.12
2023-01-25T12:54:20.406Z,5.73
2023-01-25T12:56:56.340Z,5.67
2023-01-25T12:59:35.179Z,5.89
2023-01-25T13:02:21.777Z,6.31
2023-01-25T13:05:02.995Z,6.41
2023-01-25T13:07:43.244Z,6.47
2023-01-25T13:10:20.697Z,6.23
2023-01-25T13:12:53.248Z,5.75
2023-01-25T13:15:41.655Z,6.04
2023-01-25T13:18:40.620Z,5.54
2023-01-25T13:21:31.488Z,5.46
2023-01-25T13:24:22.593Z,5.00
2023-01-25T13:27:04.550Z,5.13
2023-01-25T13:29:57.059Z,5.03
2023-01-25T13:33:03.951Z,5.29
2023-01-25T13:35:43.304Z,5.08
2023-01-25T13:38:31.632Z,5.12
2023-01-25T13:41:14.721Z,4.91
2023-01-25T13:43:48.511Z,4.80
2023-01-25T13:46:22.865Z,4.95
2023-01-25T13:49:03.996Z,4.78
2023-01-25T13:51:39.209Z,4.67
2023-01-25T13:54:14.831Z,5.35
2023-01-25T13:56:42.905Z,4.94
2023-01-25T13:59:26.549Z,4.81
2023-01-25T14:01:54.594Z,4.77
2023-01-25T14:04:22.785Z,4.85
2023-01-25T14:06:57.945Z,4.63
2023-01-25T14:09:26.333Z,4.48
2023-01-25T14:11:56.418Z,4.59
2023-01-25T14:14:28.836Z,4.90
2023-01-25T14:17:11.182Z,5.11
2023-01-25T14:19:41.196Z,5.48
2023-01-25T14:22:22.032Z,4.85
2023-01-25T14:25:11.572Z,5.39
2023-01-25T14:27:44.185Z,5.51
2023-01-25T14:30:22.501Z,5.11
2023-01-25T14:32:54.299Z,4.89
2023-01-25T14:35:43.052Z,4.96
2023-01-25T14:38:22.919Z,4.90
2023-01-25T14:40:54.956Z,4.74
2023-01-25T14:43:24.000Z,4.59
2023-01-25T14:45:53.719Z,5.23
2023-01-25T14:48:37.799Z,4.58
2023-01-25T14:51:14.704Z,4.81
2023-01-25T14:53:47.490Z,5.16
2023-01-25T14:56:29.879Z,5.16
2023-01-25T14:59:00.022Z,5.20
2023-01-25T15:01:38.274Z,4.85
2023-01-25T15:04:12.588Z,4.88
2023-01-25T15:06:51.636Z,4.65
2023-01-25T15:09:34.752Z,4.70
2023-01-25T15:12:05.805Z,4.60
2023-01-25T15:14:33.509Z,4.82
2023-01-25T15:17:02.525Z,4.53
2023-01-25T15:19:31.576Z,4.18
2023-01-25T15:22:00.428Z,4.03
2023-01-25T15:24:28.564Z,4.04
2023-01-25T15:26:56.164Z,3.86
2023-01-25T15:29:26.631Z,3.87
2023-01-25T15:31:56.308Z,3.83
2023-01-25T15:34:28.276Z,4.04
2023-01-25T15:36:56.828Z,4.27
2023-01-25T15:39:24.747Z,4.17
2023-01-25T15:41:52.261Z,4.41
2023-01-25T15:44:19.919Z,4.38
2023-01-25T15:46:51.432Z,4.26
2023-01-25T15:49:25.644Z,4.28
2023-01-25T15:51:53.794Z,4.04
2023-01-25T15:54:23.032Z,3.80
2023-01-25T15:56:55.512Z,3.88
2023-01-25T15:59:24.173Z,3.80
2023-01-25T16:01:51.926Z,4.05
2023-01-25T16:04:22.103Z,4.29
2023-01-25T16:06:54.460Z,3.88
2023-01-25T16:09:25.173Z,3.84
2023-01-25T16:11:55.302Z,3.84
2023-01-25T16:14:25.075Z,3.99
2023-01-25T16:16:53.623Z,3.77
2023-01-25T16:19:23.606Z,3.72
2023-01-25T16:21:52.995Z,3.74
2023-01-25T16:24:20.830Z,3.90
2023-01-25T16:26:52.237Z,3.96
2023-01-25T16:29:21.604Z,3.67
2023-01-25T16:31:50.476Z,3.61
2023-01-25T16:34:18.225Z,3.80
2023-01-25T16:36:45.835Z,3.77
2023-01-25T16:39:17.899Z,4.06
2023-01-25T16:41:45.572Z,3.98
2023-01-25T16:44:16.131Z,3.75
2023-01-25T16:46:43.828Z,3.94
2023-01-25T16:49:16.400Z,3.83
2023-01-25T16:51:44.319Z,3.94
2023-01-25T16:54:12.560Z,3.99
2023-01-25T16:56:42.634Z,4.28
2023-01-25T16:59:11.138Z,4.28
2023-01-25T17:01:41.307Z,4.30
2023-01-25T17:04:10.680Z,4.30
2023-01-25T17:06:40.837Z,3.99
2023-01-25T17:09:22.091Z,4.23
2023-01-25T17:11:54.011Z,4.31
2023-01-25T17:14:25.167Z,4.41
2023-01-25T17:16:53.675Z,4.18
2023-01-25T17:19:21.991Z,4.34
2023-01-25T17:21:49.960Z,4.13
2023-01-25T17:24:20.178Z,3.89
2023-01-25T17:26:49.858Z,3.84
2023-01-25T17:29:20.580Z,4.28
2023-01-25T17:31:48.912Z,4.10
2023-01-25T17:34:18.682Z,4.00
2023-01-25T17:36:46.348Z,3.93
2023-01-25T17:39:15.825Z,4.06
2023-01-25T17:41:44.280Z,3.78
2023-01-25T17:44:12.404Z,3.64
2023-01-25T17:46:41.970Z,3.85
2023-01-25T17:49:12.795Z,4.24
2023-01-25T17:51:40.714Z,4.49
2023-01-25T17:54:08.660Z,4.36
2023-01-25T17:56:39.206Z,4.55
2023-01-25T17:59:07.703Z,4.63
2023-01-25T18:01:36.385Z,4.44
2023-01-25T18:04:09.173Z,4.03
2023-01-25T18:06:37.248Z,3.90
2023-01-25T18:09:05.896Z,4.09
2023-01-25T18:11:36.209Z,3.71
2023-01-25T18:14:06.449Z,3.50
2023-01-25T18:16:36.078Z,3.70
2023-01-25T18:19:03.713Z,3.53
2023-01-25T18:21:34.210Z,3.59
2023-01-25T18:24:05.696Z,3.47
2023-01-25T18:26:35.809Z,3.48
2023-01-25T18:29:31.345Z,3.40
2023-01-25T18:31:58.964Z,3.34
2023-01-25T18:34:26.572Z,3.32
2023-01-25T18:36:55.491Z,3.33
2023-01-25T18:39:23.031Z,3.22
2023-01-25T18:41:50.753Z,3.40
2023-01-25T18:44:18.627Z,3.42
2023-01-25T18:46:48.031Z,3.63
2023-01-25T18:49:15.731Z,3.43
2023-01-25T18:52:02.245Z,3.46
2023-01-25T18:54:33.991Z,3.68
2023-01-25T18:57:01.618Z,3.49
2023-01-25T18:59:29.220Z,3.61
2023-01-25T19:01:56.951Z,3.81
2023-01-25T19:04:27.027Z,3.87
2023-01-25T19:06:54.910Z,4.10
2023-01-25T19:09:23.292Z,3.98
2023-01-25T19:11:52.199Z,4.06
2023-01-25T19:14:19.771Z,3.83
2023-01-25T19:16:48.563Z,4.04
2023-01-25T19:19:17.324Z,4.04
2023-01-25T19:21:44.890Z,3.95
2023-01-25T19:24:15.051Z,4.01
2023-01-25T19:26:43.689Z,4.04
2023-01-25T19:29:15.313Z,4.06
2023-01-25T19:31:43.061Z,3.62
2023-01-25T19:34:10.821Z,3.81
2023-01-25T19:36:40.446Z,3.80
2023-01-25T19:39:08.115Z,3.83
2023-01-25T19:41:36.943Z,3.54
2023-01-25T19:44:05.776Z,3.54
2023-01-25T19:46:37.037Z,3.47
2023-01-25T19:49:07.801Z,3.74
2023-01-25T19:51:36.997Z,3.72
2023-01-25T19:54:06.716Z,3.96
2023-01-25T19:56:37.741Z,3.71
2023-01-25T19:59:08.125Z,3.85
2023-01-25T20:01:38.454Z,3.84
2023-01-25T20:04:06.375Z,3.69
2023-01-25T20:06:33.936Z,3.77
2023-01-25T20:09:01.662Z,4.05
2023-01-25T20:11:32.135Z,4.07
2023-01-25T20:14:02.640Z,3.77
2023-01-25T20:16:32.213Z,3.98
2023-01-25T20:19:02.318Z,3.94
2023-01-25T20:21:31.302Z,4.03
2023-01-25T20:24:03.962Z,3.91
2023-01-25T20:26:35.071Z,3.73
2023-01-25T20:29:03.226Z,3.88
2023-01-25T20:31:32.931Z,3.84
2023-01-25T20:34:06.126Z,3.87
2023-01-25T20:36:35.792Z,4.03
2023-01-25T20:39:05.779Z,3.87
2023-01-25T20:41:33.482Z,3.64
2023-01-25T20:44:02.818Z,3.58
2023-01-25T20:46:30.973Z,3.92
2023-01-25T20:48:58.550Z,4.08
2023-01-25T20:51:27.714Z,4.15
2023-01-25T20:53:56.461Z,4.20
2023-01-25T20:56:24.498Z,4.12
2023-01-25T20:58:53.563Z,4.15
2023-01-25T21:01:23.772Z,4.21
2023-01-25T21:03:52.028Z,4.49
2023-01-25T21:06:19.715Z,4.49
2023-01-25T21:08:48.670Z,4.48
2023-01-25T21:11:16.326Z,4.39
2023-01-25T21:13:44.187Z,4.18
2023-01-25T21:16:14.400Z,4.19
2023-01-25T21:18:44.335Z,4.42
2023-01-25T21:21:13.649Z,4.12
2023-01-25T21:23:43.207Z,4.08
2023-01-25T21:26:15.112Z,4.19
2023-01-25T21:28:42.746Z,4.04
2023-01-25T21:31:13.165Z,4.07
2023-01-25T21:33:42.388Z,4.01
2023-01-25T21:36:12.116Z,4.19
2023-01-25T21:38:41.053Z,4.24
2023-01-25T21:41:14.831Z,4.34
2023-01-25T21:43:42.694Z,4.53
2023-01-25T21:46:10.233Z,4.43
2023-01-25T21:48:37.788Z,4.51
2023-01-25T21:51:05.753Z,4.25
2023-01-25T21:53:33.589Z,4.49
2023-01-25T21:56:01.415Z,4.48
2023-01-25T21:58:30.475Z,4.46
2023-01-25T22:01:00.948Z,4.44
2023-01-25T22:03:28.745Z,4.51
2023-01-25T22:05:57.892Z,4.59
2023-01-25T22:08:28.570Z,4.07
2023-01-25T22:11:01.314Z,4.36
2023-01-25T22:13:31.428Z,4.23
2023-01-25T22:15:59.944Z,4.40
2023-01-25T22:18:33.660Z,4.57
2023-01-25T22:21:05.604Z,4.63
2023-01-25T22:23:34.749Z,4.70
2023-01-25T22:26:04.278Z,4.47
2023-01-25T22:28:39.028Z,4.63
2023-01-25T22:31:07.210Z,4.55
2023-01-25T22:33:35.076Z,4.62
2023-01-25T22:36:02.845Z,4.46
2023-01-25T22:38:32.722Z,4.04
2023-01-25T22:41:04.405Z,4.14
2023-01-25T22:43:34.221Z,4.05
2023-01-25T22:46:02.878Z,4.42
2023-01-25T22:48:31.974Z,4.30
2023-01-25T22:51:03.046Z,4.35
2023-01-25T22:53:30.823Z,4.54
2023-01-25T22:56:00.137Z,4.43
2023-01-25T22:58:27.937Z,4.65
2023-01-25T23:00:56.960Z,4.41
2023-01-25T23:03:24.631Z,4.34
2023-01-25T23:05:59.052Z,4.27
2023-01-25T23:08:28.284Z,4.45
2023-01-25T23:10:59.851Z,4.62
2023-01-25T23:13:28.191Z,4.62
2023-01-25T23:16:00.727Z,4.66
2023-01-25T23:18:28.590Z,4.44
2023-01-25T23:21:01.462Z,4.51
2023-01-25T23:23:29.252Z,4.23
2023-01-25T23:25:58.740Z,4.08
2023-01-25T23:28:26.404Z,4.12
2023-01-25T23:30:54.105Z,4.26
2023-01-25T23:33:23.348Z,4.40
2023-01-25T23:35:50.901Z,4.63
2023-01-25T23:38:18.442Z,4.62
2023-01-25T23:40:45.998Z,4.65
2023-01-25T23:43:13.599Z,4.71
2023-01-25T23:45:42.667Z,4.69
2023-01-25T23:48:10.224Z,4.47
2023-01-25T23:50:39.115Z,4.14
2023-01-25T23:53:06.717Z,4.12
2023-01-25T23:55:34.400Z,4.20
2023-01-25T23:58:02.241Z,3.92
